createdAt,value
2022-12-01T00:02:02.438Z,82.65
2022-12-01T00:05:05.002Z,115.57
2022-12-01T00:08:07.166Z,48.38
2022-12-01T00:11:12.030Z,120.10
2022-12-01T00:14:14.580Z,78.15
2022-12-01T00:17:16.598Z,76.10
2022-12-01T00:20:18.953Z,107.85
2022-12-01T00:23:20.973Z,78.88
2022-12-01T00:26:23.404Z,84.78
2022-12-01T00:29:25.552Z,47.38
2022-12-01T00:32:30.162Z,81.65
2022-12-01T00:35:32.190Z,63.70
2022-12-01T00:38:34.433Z,50.80
2022-12-01T00:41:36.528Z,36.20
2022-12-01T00:44:38.551Z,70.78
2022-12-01T00:47:40.592Z,127.60
2022-12-01T00:50:44.664Z,36.33
2022-12-01T00:53:46.697Z,68.38
2022-12-01T00:56:48.755Z,65.70
2022-12-01T00:59:50.996Z,64.55
2022-12-01T01:02:53.201Z,78.22
2022-12-01T01:05:55.308Z,68.63
2022-12-01T01:08:57.477Z,39.80
2022-12-01T01:11:59.542Z,8.05
2022-12-01T01:15:01.648Z,6.72
2022-12-01T01:18:04.172Z,5.80
2022-12-01T01:21:08.692Z,11.93
2022-12-01T01:24:12.889Z,48.42
2022-12-01T01:27:14.932Z,96.00
2022-12-01T01:30:17.415Z,45.72
2022-12-01T01:33:19.447Z,37.15
2022-12-01T01:36:21.475Z,49.22
2022-12-01T01:39:23.487Z,88.60
2022-12-01T01:42:25.529Z,37.83
2022-12-01T01:45:29.804Z,56.88
2022-12-01T01:48:34.613Z,28.33
2022-12-01T01:51:46.866Z,70.53
2022-12-01T01:54:50.640Z,53.15
2022-12-01T01:57:52.701Z,22.33
2022-12-01T02:00:54.787Z,26.27
2022-12-01T02:03:56.878Z,26.77
2022-12-01T02:06:58.949Z,35.08
2022-12-01T02:10:01.002Z,34.33
2022-12-01T02:13:28.408Z,83.47
2022-12-01T02:16:38.569Z,27.10
2022-12-01T02:19:58.678Z,32.00
2022-12-01T02:23:36.522Z,51.70
2022-12-01T02:27:26.019Z,54.80
2022-12-01T02:30:40.948Z,38.97
2022-12-01T02:33:53.402Z,45.92
2022-12-01T02:37:08.793Z,67.15
2022-12-01T02:40:34.069Z,10.65
2022-12-01T02:43:57.578Z,9.70
2022-12-01T02:47:20.366Z,25.50
2022-12-01T02:50:23.222Z,28.17
2022-12-01T02:53:25.272Z,27.63
2022-12-01T02:56:27.337Z,13.20
2022-12-01T02:59:29.394Z,14.68
2022-12-01T03:02:53.171Z,12.32
2022-12-01T03:06:23.725Z,11.45
2022-12-01T03:10:10.396Z,10.85
2022-12-01T03:13:44.674Z,9.10
2022-12-01T03:16:52.261Z,6.75
2022-12-01T03:19:58.640Z,8.50
2022-12-01T03:23:07.867Z,8.05
2022-12-01T03:26:11.877Z,6.80
2022-12-01T03:29:20.520Z,5.50
2022-12-01T03:32:33.978Z,6.25
2022-12-01T03:36:07.281Z,7.68
2022-12-01T03:39:13.167Z,8.88
2022-12-01T03:42:27.367Z,7.68
2022-12-01T03:45:54.796Z,9.25
2022-12-01T03:48:56.864Z,8.73
2022-12-01T03:51:58.992Z,7.63
2022-12-01T03:55:15.560Z,8.88
2022-12-01T03:58:26.042Z,8.52
2022-12-01T04:01:32.843Z,8.10
2022-12-01T04:04:35.103Z,5.82
2022-12-01T04:07:38.379Z,5.43
2022-12-01T04:10:40.630Z,5.63
2022-12-01T04:13:42.665Z,6.18
2022-12-01T04:16:44.750Z,5.68
2022-12-01T04:19:46.965Z,4.28
2022-12-01T04:22:49.278Z,4.53
2022-12-01T04:26:00.209Z,4.82
2022-12-01T04:29:04.466Z,4.13
2022-12-01T04:32:06.570Z,4.60
2022-12-01T04:35:10.053Z,4.47
2022-12-01T04:38:12.166Z,4.35
2022-12-01T04:41:14.494Z,4.53
2022-12-01T04:44:16.607Z,4.10
2022-12-01T04:47:18.630Z,5.63
2022-12-01T04:50:20.681Z,4.68
2022-12-01T04:53:22.726Z,6.10
2022-12-01T04:56:24.862Z,4.82
2022-12-01T04:59:26.899Z,6.15
2022-12-01T05:02:28.972Z,5.45
2022-12-01T05:05:31.104Z,6.07
2022-12-01T05:08:34.253Z,5.40
2022-12-01T05:11:36.326Z,5.43
2022-12-01T05:14:38.349Z,5.40
2022-12-01T05:17:40.491Z,5.13
2022-12-01T05:20:57.469Z,5.82
2022-12-01T05:23:59.518Z,5.85
2022-12-01T05:27:01.536Z,5.88
2022-12-01T05:30:03.938Z,5.55
2022-12-01T05:33:06.476Z,7.53
2022-12-01T05:36:09.026Z,5.70
2022-12-01T05:39:11.061Z,4.97
2022-12-01T05:42:13.116Z,6.57
2022-12-01T05:45:15.194Z,5.25
2022-12-01T05:48:17.973Z,5.63
2022-12-01T05:51:20.106Z,5.88
2022-12-01T05:54:22.221Z,6.68
2022-12-01T05:57:24.248Z,6.70
2022-12-01T06:00:26.343Z,5.93
2022-12-01T06:03:28.414Z,7.57
2022-12-01T06:06:30.443Z,6.90
2022-12-01T06:09:32.502Z,7.13
2022-12-01T06:12:34.545Z,6.57
2022-12-01T06:15:36.561Z,4.78
2022-12-01T06:18:38.954Z,6.60
2022-12-01T06:21:41.046Z,4.82
2022-12-01T06:24:43.099Z,5.97
2022-12-01T06:27:45.167Z,5.78
2022-12-01T06:30:47.244Z,6.22
2022-12-01T06:33:49.273Z,7.65
2022-12-01T06:36:51.315Z,6.13
2022-12-01T06:39:53.388Z,7.93
2022-12-01T06:42:55.429Z,8.07
2022-12-01T06:46:01.739Z,5.95
2022-12-01T06:49:04.664Z,7.00
2022-12-01T06:52:06.775Z,8.68
2022-12-01T06:55:09.276Z,8.82
2022-12-01T06:58:11.487Z,10.05
2022-12-01T07:01:13.680Z,8.13
2022-12-01T07:04:15.745Z,9.43
2022-12-01T07:07:17.849Z,21.83
2022-12-01T07:10:19.977Z,31.05
2022-12-01T07:13:21.992Z,57.03
2022-12-01T07:16:24.156Z,22.45
2022-12-01T07:19:26.244Z,16.48
2022-12-01T07:22:32.916Z,17.08
2022-12-01T07:25:35.127Z,7.32
2022-12-01T07:28:37.249Z,5.60
2022-12-01T07:31:39.452Z,6.45
2022-12-01T07:34:41.555Z,5.90
2022-12-01T07:37:43.599Z,4.70
2022-12-01T07:40:45.641Z,5.65
2022-12-01T07:43:48.275Z,6.70
2022-12-01T07:46:50.390Z,6.30
2022-12-01T07:49:52.431Z,5.60
2022-12-01T07:52:54.482Z,6.88
2022-12-01T07:55:56.516Z,6.15
2022-12-01T07:58:58.580Z,7.22
2022-12-01T08:02:00.711Z,8.63
2022-12-01T08:05:02.813Z,7.47
2022-12-01T08:08:05.190Z,7.68
2022-12-01T08:11:21.912Z,9.43
2022-12-01T08:14:23.981Z,7.65
2022-12-01T08:17:26.013Z,8.68
2022-12-01T08:20:28.161Z,7.25
2022-12-01T08:23:30.225Z,7.10
2022-12-01T08:26:32.284Z,7.68
2022-12-01T08:29:35.762Z,8.88
2022-12-01T08:32:37.809Z,10.07
2022-12-01T08:35:39.941Z,9.98
2022-12-01T08:38:46.061Z,12.35
2022-12-01T08:41:48.131Z,19.45
2022-12-01T08:44:50.298Z,13.27
2022-12-01T08:47:54.511Z,12.80
2022-12-01T08:51:14.463Z,11.85
2022-12-01T08:54:16.482Z,15.82
2022-12-01T08:57:18.529Z,16.48
2022-12-01T09:00:20.649Z,12.30
2022-12-01T09:03:22.706Z,13.65
2022-12-01T09:06:24.770Z,13.35
2022-12-01T09:09:28.490Z,14.05
2022-12-01T09:12:30.556Z,13.02
2022-12-01T09:15:32.574Z,12.95
2022-12-01T09:18:35.139Z,13.75
2022-12-01T09:21:37.599Z,12.48
2022-12-01T09:24:39.645Z,12.07
2022-12-01T09:27:41.887Z,12.27
2022-12-01T09:30:45.269Z,13.05
2022-12-01T09:33:47.365Z,12.07
2022-12-01T09:36:49.727Z,12.95
2022-12-01T09:39:52.015Z,14.05
2022-12-01T09:42:54.145Z,12.90
2022-12-01T09:46:02.365Z,15.85
2022-12-01T09:49:04.638Z,14.82
2022-12-01T09:52:12.860Z,15.75
2022-12-01T09:55:17.809Z,14.70
2022-12-01T09:58:25.000Z,17.63
2022-12-01T10:01:38.817Z,15.75
2022-12-01T10:04:44.660Z,14.68
2022-12-01T10:07:49.848Z,15.88
2022-12-01T10:10:53.245Z,16.23
2022-12-01T10:13:55.256Z,17.77
2022-12-01T10:17:33.895Z,17.63
2022-12-01T10:20:49.144Z,18.08
2022-12-01T10:24:18.914Z,19.25
2022-12-01T10:27:43.540Z,18.60
2022-12-01T10:30:53.274Z,19.25
2022-12-01T10:34:36.657Z,20.02
2022-12-01T10:37:40.024Z,18.98
2022-12-01T10:40:42.571Z,21.95
2022-12-01T10:43:47.808Z,20.73
2022-12-01T10:46:54.221Z,23.35
2022-12-01T10:49:56.401Z,22.98
2022-12-01T10:52:58.601Z,26.45
2022-12-01T10:56:19.153Z,24.63
2022-12-01T10:59:37.964Z,24.27
2022-12-01T11:02:40.063Z,24.15
2022-12-01T11:05:42.249Z,30.15
2022-12-01T11:08:59.833Z,29.52
2022-12-01T11:12:03.368Z,24.33
2022-12-01T11:15:05.979Z,28.48
2022-12-01T11:18:28.173Z,25.40
2022-12-01T11:21:30.191Z,26.42
2022-12-01T11:24:55.643Z,24.85
2022-12-01T11:28:01.861Z,26.65
2022-12-01T11:31:09.312Z,24.77
2022-12-01T11:34:34.278Z,27.30
2022-12-01T11:37:54.811Z,27.92
2022-12-01T11:41:02.397Z,27.45
2022-12-01T11:44:12.686Z,29.27
2022-12-01T11:47:26.845Z,29.75
2022-12-01T11:50:39.921Z,25.85
2022-12-01T11:53:42.896Z,28.95
2022-12-01T11:56:46.663Z,33.63
2022-12-01T11:59:49.181Z,30.70
2022-12-01T12:03:12.939Z,25.83
2022-12-01T12:06:46.022Z,26.45
2022-12-01T12:10:10.744Z,56.90
2022-12-01T12:13:15.884Z,26.60
2022-12-01T12:17:08.045Z,27.13
2022-12-01T12:20:25.053Z,29.58
2022-12-01T12:23:46.204Z,27.05
2022-12-01T12:27:25.425Z,29.75
2022-12-01T12:30:29.988Z,32.83
2022-12-01T12:34:01.078Z,28.52
2022-12-01T12:37:26.340Z,33.90
2022-12-01T12:41:23.144Z,41.65
2022-12-01T12:44:49.998Z,33.88
2022-12-01T12:48:45.681Z,35.53
2022-12-01T12:52:24.229Z,29.02
2022-12-01T12:55:37.202Z,30.90
2022-12-01T12:59:03.634Z,51.30
2022-12-01T13:02:31.858Z,34.53
2022-12-01T13:05:54.546Z,27.85
2022-12-01T13:09:21.008Z,32.78
2022-12-01T13:12:30.173Z,27.58
2022-12-01T13:15:32.250Z,32.28
2022-12-01T13:18:47.857Z,31.90
2022-12-01T13:21:51.009Z,63.35
2022-12-01T13:24:53.138Z,36.90
2022-12-01T13:27:55.570Z,36.25
2022-12-01T13:31:13.218Z,35.10
2022-12-01T13:34:38.033Z,34.60
2022-12-01T13:37:40.212Z,32.45
2022-12-01T13:40:42.247Z,28.02
2022-12-01T13:44:06.814Z,30.02
2022-12-01T13:47:11.677Z,29.83
2022-12-01T13:50:46.021Z,31.83
2022-12-01T13:54:28.440Z,27.75
2022-12-01T13:57:32.792Z,33.83
2022-12-01T14:00:37.823Z,206.60
2022-12-01T14:03:40.784Z,51.90
2022-12-01T14:06:51.387Z,29.05
2022-12-01T14:09:58.850Z,198.65
2022-12-01T14:13:04.211Z,31.98
2022-12-01T14:16:06.547Z,30.15
2022-12-01T14:19:39.450Z,52.03
2022-12-01T14:22:46.700Z,41.20
2022-12-01T14:26:19.588Z,33.80
2022-12-01T14:29:43.178Z,33.75
2022-12-01T14:32:45.217Z,30.17
2022-12-01T14:35:47.247Z,34.53
2022-12-01T14:38:58.280Z,34.80
2022-12-01T14:42:04.201Z,29.67
2022-12-01T14:45:08.200Z,32.15
2022-12-01T14:48:14.393Z,32.10
2022-12-01T14:51:34.209Z,32.47
2022-12-01T14:54:47.093Z,30.08
2022-12-01T14:58:05.928Z,54.08
2022-12-01T15:01:12.712Z,36.65
2022-12-01T15:04:15.493Z,37.30
2022-12-01T15:07:22.803Z,37.65
2022-12-01T15:13:51.396Z,35.95
2022-12-01T15:16:53.495Z,33.25
2022-12-01T15:19:55.618Z,36.50
2022-12-01T15:22:58.545Z,39.63
2022-12-01T15:26:01.250Z,47.78
2022-12-01T15:29:19.324Z,42.25
2022-12-01T15:32:22.564Z,54.00
2022-12-01T15:35:24.614Z,51.10
2022-12-01T15:38:35.948Z,46.10
2022-12-01T15:41:38.053Z,40.33
2022-12-01T15:44:40.924Z,45.38
2022-12-01T15:47:45.809Z,76.05
2022-12-01T15:50:58.945Z,60.35
2022-12-01T15:54:01.337Z,72.15
2022-12-01T15:57:03.633Z,75.50
2022-12-01T16:00:06.815Z,64.25
2022-12-01T16:03:14.333Z,146.68
2022-12-01T16:06:16.480Z,86.15
2022-12-01T16:09:40.425Z,84.28
2022-12-01T16:12:42.497Z,100.80
2022-12-01T16:15:44.617Z,102.85
2022-12-01T16:18:57.655Z,83.55
2022-12-01T16:22:18.893Z,82.60
2022-12-01T16:25:38.182Z,88.15
2022-12-01T16:28:40.251Z,98.65
2022-12-01T16:31:58.538Z,83.65
2022-12-01T16:35:06.401Z,93.93
2022-12-01T16:38:25.547Z,125.28
2022-12-01T16:41:38.458Z,109.63
2022-12-01T16:44:41.852Z,96.47
2022-12-01T16:47:45.847Z,171.70
2022-12-01T16:50:48.845Z,164.07
2022-12-01T16:53:51.252Z,133.00
2022-12-01T16:56:53.421Z,169.68
2022-12-01T16:59:55.545Z,253.55
2022-12-01T17:02:57.895Z,123.78
2022-12-01T17:06:01.694Z,139.18
2022-12-01T17:09:04.048Z,92.82
2022-12-01T17:12:06.436Z,125.15
2022-12-01T17:15:09.069Z,150.27
2022-12-01T17:18:11.266Z,104.85
2022-12-01T17:21:13.497Z,114.20
2022-12-01T17:24:18.978Z,98.03
2022-12-01T17:27:23.046Z,163.70
2022-12-01T17:30:25.135Z,169.13
2022-12-01T17:33:27.228Z,144.38
2022-12-01T17:36:29.268Z,148.55
2022-12-01T17:39:31.318Z,166.38
2022-12-01T17:42:33.941Z,175.65
2022-12-01T17:45:36.022Z,125.53
2022-12-01T17:48:45.550Z,78.85
2022-12-01T17:51:47.666Z,153.77
2022-12-01T17:54:49.892Z,118.20
2022-12-01T17:57:52.072Z,105.55
2022-12-01T18:00:54.214Z,159.15
2022-12-01T18:03:57.491Z,125.55
2022-12-01T18:07:00.581Z,109.88
2022-12-01T18:10:02.644Z,110.82
2022-12-01T18:13:04.746Z,257.60
2022-12-01T18:16:09.059Z,120.35
2022-12-01T18:19:11.212Z,154.90
2022-12-01T18:22:13.271Z,144.82
2022-12-01T18:25:15.573Z,166.13
2022-12-01T18:28:17.602Z,159.18
2022-12-01T18:31:19.699Z,317.63
2022-12-01T18:34:21.857Z,186.90
2022-12-01T18:37:23.907Z,165.55
2022-12-01T18:40:25.935Z,130.00
2022-12-01T18:43:29.700Z,150.73
2022-12-01T18:46:31.767Z,134.35
2022-12-01T18:49:33.862Z,98.65
2022-12-01T18:52:37.463Z,136.52
2022-12-01T18:55:39.573Z,128.45
2022-12-01T18:58:41.692Z,138.27
2022-12-01T19:01:44.490Z,121.85
2022-12-01T19:04:50.035Z,91.50
2022-12-01T19:07:56.058Z,112.70
2022-12-01T19:11:01.064Z,116.65
2022-12-01T19:14:03.641Z,135.85
2022-12-01T19:17:05.765Z,126.78
2022-12-01T19:20:08.868Z,113.35
2022-12-01T19:23:10.927Z,98.60
2022-12-01T19:26:18.509Z,96.10
2022-12-01T19:29:20.558Z,81.65
2022-12-01T19:32:22.926Z,94.47
2022-12-01T19:35:24.993Z,102.40
2022-12-01T19:38:27.745Z,109.40
2022-12-01T19:41:29.994Z,120.55
2022-12-01T19:44:32.195Z,101.55
2022-12-01T19:47:34.804Z,115.47
2022-12-01T19:50:37.025Z,121.20
2022-12-01T19:53:39.088Z,94.75
2022-12-01T19:56:41.233Z,189.38
2022-12-01T19:59:43.249Z,128.85
2022-12-01T20:02:45.325Z,92.03
2022-12-01T20:05:47.448Z,117.45
2022-12-01T20:08:49.993Z,207.70
2022-12-01T20:11:53.057Z,115.60
2022-12-01T20:14:56.088Z,100.32
2022-12-01T20:17:58.193Z,89.78
2022-12-01T20:21:10.866Z,109.88
2022-12-01T20:24:15.094Z,187.85
2022-12-01T20:27:17.111Z,236.30
2022-12-01T20:30:19.213Z,157.18
2022-12-01T20:33:21.375Z,187.73
2022-12-01T20:36:26.844Z,156.70
2022-12-01T20:39:31.437Z,133.68
2022-12-01T20:42:33.540Z,203.23
2022-12-01T20:45:35.699Z,152.75
2022-12-01T20:48:37.787Z,216.02
2022-12-01T20:51:45.455Z,142.93
2022-12-01T20:54:47.578Z,169.45
2022-12-01T20:57:49.902Z,126.03
2022-12-01T21:00:51.963Z,154.65
2022-12-01T21:03:54.118Z,139.52
2022-12-01T21:06:57.670Z,219.23
2022-12-01T21:09:59.696Z,149.65
2022-12-01T21:13:39.090Z,132.05
2022-12-01T21:16:41.247Z,164.57
2022-12-01T21:20:12.934Z,185.20
2022-12-01T21:23:18.047Z,152.52
2022-12-01T21:26:20.093Z,192.82
2022-12-01T21:29:25.056Z,147.20
2022-12-01T21:32:32.004Z,160.68
2022-12-01T21:35:34.081Z,129.50
2022-12-01T21:38:36.135Z,124.38
2022-12-01T21:41:38.249Z,151.75
2022-12-01T21:44:40.284Z,189.88
2022-12-01T21:47:42.321Z,181.23
2022-12-01T21:50:49.259Z,221.18
2022-12-01T21:53:56.010Z,127.50
2022-12-01T21:56:58.361Z,87.05
2022-12-01T22:00:29.921Z,97.22
2022-12-01T22:03:34.508Z,119.75
2022-12-01T22:06:39.432Z,89.85
2022-12-01T22:09:41.508Z,97.65
2022-12-01T22:12:43.559Z,121.90
2022-12-01T22:15:45.676Z,89.03
2022-12-01T22:18:56.644Z,69.82
2022-12-01T22:22:27.178Z,79.32
2022-12-01T22:25:29.903Z,68.07
2022-12-01T22:28:32.100Z,81.78
2022-12-01T22:31:34.259Z,73.80
2022-12-01T22:34:36.359Z,122.78
2022-12-01T22:37:45.551Z,101.22
2022-12-01T22:41:11.470Z,138.50
2022-12-01T22:44:13.508Z,91.90
2022-12-01T22:47:15.560Z,188.85
2022-12-01T22:50:31.815Z,160.68
2022-12-01T22:53:33.958Z,113.82
2022-12-01T22:56:44.431Z,158.93
2022-12-01T22:59:47.884Z,136.48
2022-12-01T23:02:50.828Z,128.70
2022-12-01T23:05:56.778Z,180.13
2022-12-01T23:08:58.799Z,93.95
2022-12-01T23:12:25.013Z,84.65
2022-12-01T23:15:40.231Z,65.03
2022-12-01T23:18:42.348Z,123.93
2022-12-01T23:21:44.432Z,92.88
2022-12-01T23:24:46.468Z,100.32
2022-12-01T23:27:50.501Z,97.07
2022-12-01T23:30:55.589Z,113.95
2022-12-01T23:33:57.687Z,94.10
2022-12-01T23:36:59.777Z,92.47
2022-12-01T23:40:03.363Z,89.35
2022-12-01T23:43:29.108Z,104.78
2022-12-01T23:46:31.306Z,101.75
2022-12-01T23:49:34.458Z,72.97
2022-12-01T23:52:36.711Z,75.72
2022-12-01T23:55:38.863Z,78.90
2022-12-01T23:58:40.962Z,91.25
